sensor_id;sensor_type;location;lat;lon;timestamp;pressure;altitude;pressure_sealevel;temperature;humidity
10732;BME280;5417;42.686;23.244;2022-10-26T00:00:33;94750.84;;;17.29;60.22
10732;BME280;5417;42.686;23.244;2022-10-26T00:03:00;94757.09;;;17.28;60.46
10732;BME280;5417;42.686;23.244;2022-10-26T00:05:27;94755.75;;;17.24;60.40
10732;BME280;5417;42.686;23.244;2022-10-26T00:07:54;94749.97;;;17.20;60.88
10732;BME280;5417;42.686;23.244;2022-10-26T00:10:20;94749.44;;;17.17;61.17
10732;BME280;5417;42.686;23.244;2022-10-26T00:12:49;94747.28;;;17.12;61.17
10732;BME280;5417;42.686;23.244;2022-10-26T00:15:17;94743.16;;;17.10;61.10
10732;BME280;5417;42.686;23.244;2022-10-26T00:17:45;94751.03;;;17.10;61.39
10732;BME280;5417;42.686;23.244;2022-10-26T00:20:13;94750.53;;;17.06;61.12
10732;BME280;5417;42.686;23.244;2022-10-26T00:22:40;94752.66;;;17.02;61.82
10732;BME280;5417;42.686;23.244;2022-10-26T00:25:08;94756.25;;;17.01;61.42
10732;BME280;5417;42.686;23.244;2022-10-26T00:27:35;94761.00;;;16.98;61.57
10732;BME280;5417;42.686;23.244;2022-10-26T00:30:04;94763.28;;;16.93;61.68
10732;BME280;5417;42.686;23.244;2022-10-26T00:32:32;94756.66;;;16.89;61.94
10732;BME280;5417;42.686;23.244;2022-10-26T00:34:59;94761.41;;;16.85;62.19
10732;BME280;5417;42.686;23.244;2022-10-26T00:37:26;94763.53;;;16.82;62.26
10732;BME280;5417;42.686;23.244;2022-10-26T00:39:53;94767.97;;;16.81;62.37
10732;BME280;5417;42.686;23.244;2022-10-26T00:42:21;94769.09;;;16.79;62.33
10732;BME280;5417;42.686;23.244;2022-10-26T00:45:14;94773.38;;;16.80;62.34
10732;BME280;5417;42.686;23.244;2022-10-26T00:47:47;94766.94;;;16.74;62.34
10732;BME280;5417;42.686;23.244;2022-10-26T00:50:17;94753.41;;;16.69;62.41
10732;BME280;5417;42.686;23.244;2022-10-26T00:52:45;94767.22;;;16.71;62.57
10732;BME280;5417;42.686;23.244;2022-10-26T00:55:12;94753.41;;;16.69;62.56
10732;BME280;5417;42.686;23.244;2022-10-26T00:57:39;94757.03;;;16.68;62.36
10732;BME280;5417;42.686;23.244;2022-10-26T01:00:07;94756.34;;;16.66;62.72
10732;BME280;5417;42.686;23.244;2022-10-26T01:02:34;94752.47;;;16.60;62.67
10732;BME280;5417;42.686;23.244;2022-10-26T01:05:05;94750.97;;;16.58;62.73
10732;BME280;5417;42.686;23.244;2022-10-26T01:07:32;94746.69;;;16.57;62.57
10732;BME280;5417;42.686;23.244;2022-10-26T01:10:00;94751.94;;;16.57;62.50
10732;BME280;5417;42.686;23.244;2022-10-26T01:12:27;94743.09;;;16.58;62.37
10732;BME280;5417;42.686;23.244;2022-10-26T01:14:54;94751.66;;;16.60;62.23
10732;BME280;5417;42.686;23.244;2022-10-26T01:17:33;94744.44;;;16.62;62.11
10732;BME280;5417;42.686;23.244;2022-10-26T01:20:37;94736.72;;;16.60;62.28
10732;BME280;5417;42.686;23.244;2022-10-26T01:23:12;94734.53;;;16.56;62.05
10732;BME280;5417;42.686;23.244;2022-10-26T01:25:59;94739.50;;;16.59;61.92
10732;BME280;5417;42.686;23.244;2022-10-26T01:28:43;94742.91;;;16.69;61.21
10732;BME280;5417;42.686;23.244;2022-10-26T01:31:23;94745.94;;;16.64;61.57
10732;BME280;5417;42.686;23.244;2022-10-26T01:33:56;94749.53;;;16.63;61.25
10732;BME280;5417;42.686;23.244;2022-10-26T01:36:31;94746.91;;;16.63;61.76
10732;BME280;5417;42.686;23.244;2022-10-26T01:39:05;94745.00;;;16.65;61.61
10732;BME280;5417;42.686;23.244;2022-10-26T01:41:36;94727.69;;;16.63;61.69
10732;BME280;5417;42.686;23.244;2022-10-26T01:44:09;94727.44;;;16.66;61.78
10732;BME280;5417;42.686;23.244;2022-10-26T01:46:43;94729.09;;;16.67;62.14
10732;BME280;5417;42.686;23.244;2022-10-26T01:49:12;94731.50;;;16.86;61.89
10732;BME280;5417;42.686;23.244;2022-10-26T01:51:42;94719.56;;;16.92;61.98
10732;BME280;5417;42.686;23.244;2022-10-26T01:54:10;94717.28;;;16.97;61.63
10732;BME280;5417;42.686;23.244;2022-10-26T01:56:38;94722.06;;;17.01;61.84
10732;BME280;5417;42.686;23.244;2022-10-26T01:59:32;94720.69;;;16.89;62.37
10732;BME280;5417;42.686;23.244;2022-10-26T02:02:37;94720.06;;;16.69;62.90
10732;BME280;5417;42.686;23.244;2022-10-26T02:05:19;94724.69;;;16.58;63.44
10732;BME280;5417;42.686;23.244;2022-10-26T02:07:54;94720.72;;;16.54;63.70
10732;BME280;5417;42.686;23.244;2022-10-26T02:10:29;94713.16;;;16.51;63.62
10732;BME280;5417;42.686;23.244;2022-10-26T02:13:02;94712.22;;;16.60;63.39
10732;BME280;5417;42.686;23.244;2022-10-26T02:15:39;94716.59;;;16.51;63.69
10732;BME280;5417;42.686;23.244;2022-10-26T02:18:19;94719.03;;;16.45;63.67
10732;BME280;5417;42.686;23.244;2022-10-26T02:20:54;94722.25;;;16.38;63.75
10732;BME280;5417;42.686;23.244;2022-10-26T02:23:23;94732.63;;;16.40;63.77
10732;BME280;5417;42.686;23.244;2022-10-26T02:25:55;94724.22;;;16.36;63.27
10732;BME280;5417;42.686;23.244;2022-10-26T02:28:27;94729.78;;;16.33;63.40
10732;BME280;5417;42.686;23.244;2022-10-26T02:30:58;94732.25;;;16.35;63.82
10732;BME280;5417;42.686;23.244;2022-10-26T02:33:30;94733.38;;;16.32;63.67
10732;BME280;5417;42.686;23.244;2022-10-26T02:36:00;94732.25;;;16.35;63.58
10732;BME280;5417;42.686;23.244;2022-10-26T02:38:31;94731.56;;;16.33;63.67
10732;BME280;5417;42.686;23.244;2022-10-26T02:40:59;94741.63;;;16.37;63.06
10732;BME280;5417;42.686;23.244;2022-10-26T02:43:29;94741.25;;;16.32;63.64
10732;BME280;5417;42.686;23.244;2022-10-26T02:46:05;94743.00;;;16.24;63.72
10732;BME280;5417;42.686;23.244;2022-10-26T02:48:35;94731.97;;;16.20;63.79
10732;BME280;5417;42.686;23.244;2022-10-26T02:51:07;94735.63;;;16.09;63.89
10732;BME280;5417;42.686;23.244;2022-10-26T02:53:41;94733.75;;;16.02;64.06
10732;BME280;5417;42.686;23.244;2022-10-26T02:56:15;94740.56;;;15.95;64.41
10732;BME280;5417;42.686;23.244;2022-10-26T02:58:46;94741.84;;;15.91;64.71
10732;BME280;5417;42.686;23.244;2022-10-26T03:01:14;94733.72;;;15.84;64.59
10732;BME280;5417;42.686;23.244;2022-10-26T03:03:42;94731.41;;;15.81;64.51
10732;BME280;5417;42.686;23.244;2022-10-26T03:06:09;94736.81;;;15.80;64.68
10732;BME280;5417;42.686;23.244;2022-10-26T03:08:36;94745.56;;;15.70;64.67
10732;BME280;5417;42.686;23.244;2022-10-26T03:11:03;94751.25;;;15.66;64.96
10732;BME280;5417;42.686;23.244;2022-10-26T03:13:30;94763.41;;;15.67;65.16
10732;BME280;5417;42.686;23.244;2022-10-26T03:15:57;94750.72;;;15.62;64.89
10732;BME280;5417;42.686;23.244;2022-10-26T03:18:24;94762.72;;;15.65;65.09
10732;BME280;5417;42.686;23.244;2022-10-26T03:20:52;94771.88;;;15.61;65.30
10732;BME280;5417;42.686;23.244;2022-10-26T03:23:19;94763.31;;;15.49;65.34
10732;BME280;5417;42.686;23.244;2022-10-26T03:25:46;94777.78;;;15.53;65.24
10732;BME280;5417;42.686;23.244;2022-10-26T03:28:13;94778.38;;;15.47;65.20
10732;BME280;5417;42.686;23.244;2022-10-26T03:30:40;94786.81;;;15.41;65.66
10732;BME280;5417;42.686;23.244;2022-10-26T03:33:07;94792.50;;;15.36;65.70
10732;BME280;5417;42.686;23.244;2022-10-26T03:35:34;94780.78;;;15.31;65.85
10732;BME280;5417;42.686;23.244;2022-10-26T03:38:02;94793.91;;;15.31;65.66
10732;BME280;5417;42.686;23.244;2022-10-26T03:40:29;94791.72;;;15.26;66.29
10732;BME280;5417;42.686;23.244;2022-10-26T03:42:55;94784.97;;;15.24;66.58
10732;BME280;5417;42.686;23.244;2022-10-26T03:45:22;94796.81;;;15.28;66.34
10732;BME280;5417;42.686;23.244;2022-10-26T03:47:49;94775.19;;;15.16;66.36
10732;BME280;5417;42.686;23.244;2022-10-26T03:50:18;94790.75;;;15.27;66.56
10732;BME280;5417;42.686;23.244;2022-10-26T03:52:45;94791.41;;;15.29;66.92
10732;BME280;5417;42.686;23.244;2022-10-26T03:55:15;94788.94;;;15.28;67.11
10732;BME280;5417;42.686;23.244;2022-10-26T03:57:42;94786.59;;;15.25;67.20
10732;BME280;5417;42.686;23.244;2022-10-26T04:00:11;94780.69;;;15.23;67.25
10732;BME280;5417;42.686;23.244;2022-10-26T04:02:39;94781.66;;;15.22;66.83
10732;BME280;5417;42.686;23.244;2022-10-26T04:05:08;94787.56;;;15.24;66.98
10732;BME280;5417;42.686;23.244;2022-10-26T04:07:35;94774.91;;;15.19;66.59
10732;BME280;5417;42.686;23.244;2022-10-26T04:10:02;94793.75;;;15.32;66.67
10732;BME280;5417;42.686;23.244;2022-10-26T04:12:30;94792.63;;;15.35;66.27
10732;BME280;5417;42.686;23.244;2022-10-26T04:14:57;94786.56;;;15.34;66.19
10732;BME280;5417;42.686;23.244;2022-10-26T04:17:24;94786.72;;;15.33;66.19
10732;BME280;5417;42.686;23.244;2022-10-26T04:19:51;94794.00;;;15.39;66.25
10732;BME280;5417;42.686;23.244;2022-10-26T04:22:18;94787.25;;;15.36;66.30
10732;BME280;5417;42.686;23.244;2022-10-26T04:24:45;94800.06;;;15.39;66.52
10732;BME280;5417;42.686;23.244;2022-10-26T04:27:11;94799.53;;;15.36;66.70
10732;BME280;5417;42.686;23.244;2022-10-26T04:29:40;94791.53;;;15.37;66.71
10732;BME280;5417;42.686;23.244;2022-10-26T04:32:07;94788.22;;;15.35;66.85
10732;BME280;5417;42.686;23.244;2022-10-26T04:34:33;94791.97;;;15.33;67.14
10732;BME280;5417;42.686;23.244;2022-10-26T04:37:00;94788.94;;;15.28;67.03
10732;BME280;5417;42.686;23.244;2022-10-26T04:39:27;94793.22;;;15.29;67.12
10732;BME280;5417;42.686;23.244;2022-10-26T04:41:54;94795.84;;;15.29;67.20
10732;BME280;5417;42.686;23.244;2022-10-26T04:44:21;94799.44;;;15.28;67.27
10732;BME280;5417;42.686;23.244;2022-10-26T04:46:49;94792.53;;;15.27;66.92
10732;BME280;5417;42.686;23.244;2022-10-26T04:49:16;94794.34;;;15.26;66.90
10732;BME280;5417;42.686;23.244;2022-10-26T04:51:43;94794.88;;;15.30;67.18
10732;BME280;5417;42.686;23.244;2022-10-26T04:54:10;94797.50;;;15.30;66.86
10732;BME280;5417;42.686;23.244;2022-10-26T04:56:37;94800.94;;;15.30;66.91
10732;BME280;5417;42.686;23.244;2022-10-26T04:59:04;94806.19;;;15.30;67.28
10732;BME280;5417;42.686;23.244;2022-10-26T05:01:31;94815.13;;;15.37;67.11
10732;BME280;5417;42.686;23.244;2022-10-26T05:03:59;94804.63;;;15.37;67.18
10732;BME280;5417;42.686;23.244;2022-10-26T05:06:26;94806.69;;;15.43;67.35
10732;BME280;5417;42.686;23.244;2022-10-26T05:08:54;94815.91;;;15.47;67.61
10732;BME280;5417;42.686;23.244;2022-10-26T05:11:39;94809.84;;;15.47;67.73
10732;BME280;5417;42.686;23.244;2022-10-26T05:14:05;94817.97;;;15.54;67.85
10732;BME280;5417;42.686;23.244;2022-10-26T05:16:34;94796.88;;;15.45;67.37
10732;BME280;5417;42.686;23.244;2022-10-26T05:19:03;94815.06;;;15.66;67.56
10732;BME280;5417;42.686;23.244;2022-10-26T05:21:30;94810.38;;;16.15;67.34
10732;BME280;5417;42.686;23.244;2022-10-26T05:23:57;94814.97;;;16.84;66.16
10732;BME280;5417;42.686;23.244;2022-10-26T05:26:24;94797.97;;;17.48;64.00
10732;BME280;5417;42.686;23.244;2022-10-26T05:28:51;94815.91;;;18.21;60.65
10732;BME280;5417;42.686;23.244;2022-10-26T05:31:18;94813.72;;;18.91;58.72
10732;BME280;5417;42.686;23.244;2022-10-26T05:33:47;94812.81;;;19.64;56.32
10732;BME280;5417;42.686;23.244;2022-10-26T05:36:16;94807.09;;;20.30;54.66
10732;BME280;5417;42.686;23.244;2022-10-26T05:38:43;94819.91;;;20.95;51.90
10732;BME280;5417;42.686;23.244;2022-10-26T05:41:10;94818.50;;;21.60;50.19
10732;BME280;5417;42.686;23.244;2022-10-26T05:43:37;94814.88;;;22.20;49.04
10732;BME280;5417;42.686;23.244;2022-10-26T05:46:07;94815.38;;;22.81;47.23
10732;BME280;5417;42.686;23.244;2022-10-26T05:48:34;94803.75;;;23.31;45.78
10732;BME280;5417;42.686;23.244;2022-10-26T05:51:00;94814.38;;;23.87;45.39
10732;BME280;5417;42.686;23.244;2022-10-26T05:53:29;94818.13;;;24.34;43.80
10732;BME280;5417;42.686;23.244;2022-10-26T05:55:56;94818.69;;;24.77;42.61
10732;BME280;5417;42.686;23.244;2022-10-26T05:58:24;94821.25;;;25.25;42.75
10732;BME280;5417;42.686;23.244;2022-10-26T06:01:01;94825.13;;;25.82;40.94
10732;BME280;5417;42.686;23.244;2022-10-26T06:03:42;94831.81;;;26.17;40.23
10732;BME280;5417;42.686;23.244;2022-10-26T06:06:12;94834.53;;;25.97;39.10
10732;BME280;5417;42.686;23.244;2022-10-26T06:08:41;94838.47;;;25.55;40.06
10732;BME280;5417;42.686;23.244;2022-10-26T06:11:09;94840.31;;;25.28;40.40
10732;BME280;5417;42.686;23.244;2022-10-26T06:13:37;94841.72;;;25.24;41.07
10732;BME280;5417;42.686;23.244;2022-10-26T06:16:18;94842.53;;;25.05;41.75
10732;BME280;5417;42.686;23.244;2022-10-26T06:18:55;94841.81;;;24.76;41.95
10732;BME280;5417;42.686;23.244;2022-10-26T06:21:38;94843.00;;;24.19;43.22
10732;BME280;5417;42.686;23.244;2022-10-26T06:24:13;94843.06;;;23.14;45.25
10732;BME280;5417;42.686;23.244;2022-10-26T06:26:51;94849.94;;;22.51;47.20
10732;BME280;5417;42.686;23.244;2022-10-26T06:29:29;94846.66;;;22.34;47.77
10732;BME280;5417;42.686;23.244;2022-10-26T06:31:57;94852.25;;;21.95;48.59
10732;BME280;5417;42.686;23.244;2022-10-26T06:34:26;94854.06;;;21.65;49.41
10732;BME280;5417;42.686;23.244;2022-10-26T06:36:56;94860.59;;;21.40;50.00
10732;BME280;5417;42.686;23.244;2022-10-26T06:39:27;94860.41;;;21.19;51.14
10732;BME280;5417;42.686;23.244;2022-10-26T06:41:56;94857.88;;;20.79;51.52
10732;BME280;5417;42.686;23.244;2022-10-26T06:44:24;94854.28;;;20.72;52.39
10732;BME280;5417;42.686;23.244;2022-10-26T06:46:56;94859.03;;;20.54;53.45
10732;BME280;5417;42.686;23.244;2022-10-26T06:49:29;94861.25;;;20.42;53.10
10732;BME280;5417;42.686;23.244;2022-10-26T06:51:58;94856.81;;;20.35;53.08
10732;BME280;5417;42.686;23.244;2022-10-26T06:54:42;94865.13;;;20.15;53.54
10732;BME280;5417;42.686;23.244;2022-10-26T06:57:12;94869.00;;;19.97;54.15
10732;BME280;5417;42.686;23.244;2022-10-26T06:59:43;94868.88;;;19.90;54.99
10732;BME280;5417;42.686;23.244;2022-10-26T07:02:11;94874.03;;;19.83;55.61
10732;BME280;5417;42.686;23.244;2022-10-26T07:04:41;94876.34;;;19.62;56.24
10732;BME280;5417;42.686;23.244;2022-10-26T07:07:08;94874.53;;;19.46;56.51
10732;BME280;5417;42.686;23.244;2022-10-26T07:09:38;94876.03;;;19.49;56.33
10732;BME280;5417;42.686;23.244;2022-10-26T07:12:05;94877.50;;;19.19;57.40
10732;BME280;5417;42.686;23.244;2022-10-26T07:14:32;94878.69;;;19.00;57.51
10732;BME280;5417;42.686;23.244;2022-10-26T07:16:59;94880.31;;;19.01;58.54
10732;BME280;5417;42.686;23.244;2022-10-26T07:19:27;94882.31;;;18.91;58.74
10732;BME280;5417;42.686;23.244;2022-10-26T07:21:54;94881.09;;;18.69;58.53
10732;BME280;5417;42.686;23.244;2022-10-26T07:24:23;94877.91;;;18.49;59.40
10732;BME280;5417;42.686;23.244;2022-10-26T07:26:52;94880.03;;;18.38;59.76
10732;BME280;5417;42.686;23.244;2022-10-26T07:29:19;94877.72;;;18.35;60.39
10732;BME280;5417;42.686;23.244;2022-10-26T07:31:46;94884.78;;;18.34;59.65
10732;BME280;5417;42.686;23.244;2022-10-26T07:34:13;94876.72;;;18.36;60.14
10732;BME280;5417;42.686;23.244;2022-10-26T07:36:40;94883.16;;;18.41;60.58
10732;BME280;5417;42.686;23.244;2022-10-26T07:39:07;94878.22;;;18.46;60.29
10732;BME280;5417;42.686;23.244;2022-10-26T07:41:34;94884.47;;;18.45;60.49
10732;BME280;5417;42.686;23.244;2022-10-26T07:44:02;94884.16;;;18.48;60.93
10732;BME280;5417;42.686;23.244;2022-10-26T07:46:29;94877.59;;;18.60;60.66
10732;BME280;5417;42.686;23.244;2022-10-26T07:48:56;94874.94;;;18.52;60.13
10732;BME280;5417;42.686;23.244;2022-10-26T07:51:23;94879.88;;;18.55;59.98
10732;BME280;5417;42.686;23.244;2022-10-26T07:53:50;94877.06;;;18.41;60.99
10732;BME280;5417;42.686;23.244;2022-10-26T07:56:17;94874.75;;;18.38;60.87
10732;BME280;5417;42.686;23.244;2022-10-26T07:58:43;94865.22;;;18.45;60.84
10732;BME280;5417;42.686;23.244;2022-10-26T08:01:14;94878.09;;;18.56;61.32
10732;BME280;5417;42.686;23.244;2022-10-26T08:03:41;94872.31;;;18.52;60.00
10732;BME280;5417;42.686;23.244;2022-10-26T08:06:08;94868.84;;;18.52;59.75
10732;BME280;5417;42.686;23.244;2022-10-26T08:08:35;94874.13;;;18.60;60.58
10732;BME280;5417;42.686;23.244;2022-10-26T08:11:02;94871.22;;;18.71;59.61
10732;BME280;5417;42.686;23.244;2022-10-26T08:13:29;94872.09;;;18.96;58.74
10732;BME280;5417;42.686;23.244;2022-10-26T08:15:57;94874.56;;;19.14;58.53
10732;BME280;5417;42.686;23.244;2022-10-26T08:18:25;94878.84;;;19.23;57.38
10732;BME280;5417;42.686;23.244;2022-10-26T08:20:53;94868.94;;;19.41;56.45
10732;BME280;5417;42.686;23.244;2022-10-26T08:23:20;94864.94;;;19.70;55.75
10732;BME280;5417;42.686;23.244;2022-10-26T08:25:47;94860.31;;;19.72;54.38
10732;BME280;5417;42.686;23.244;2022-10-26T08:28:14;94866.13;;;19.59;55.08
10732;BME280;5417;42.686;23.244;2022-10-26T08:30:41;94866.91;;;19.76;56.00
10732;BME280;5417;42.686;23.244;2022-10-26T08:33:09;94866.09;;;19.83;54.19
10732;BME280;5417;42.686;23.244;2022-10-26T08:35:38;94863.59;;;19.90;54.62
10732;BME280;5417;42.686;23.244;2022-10-26T08:38:04;94871.31;;;20.00;55.27
10732;BME280;5417;42.686;23.244;2022-10-26T08:40:34;94859.09;;;19.99;54.87
10732;BME280;5417;42.686;23.244;2022-10-26T08:43:05;94860.13;;;19.90;53.98
10732;BME280;5417;42.686;23.244;2022-10-26T08:45:38;94867.59;;;19.78;54.70
10732;BME280;5417;42.686;23.244;2022-10-26T08:48:12;94858.50;;;19.80;55.12
10732;BME280;5417;42.686;23.244;2022-10-26T08:50:50;94868.06;;;19.73;54.89
10732;BME280;5417;42.686;23.244;2022-10-26T08:53:23;94873.69;;;19.70;55.18
10732;BME280;5417;42.686;23.244;2022-10-26T08:55:55;94877.19;;;19.63;54.29
10732;BME280;5417;42.686;23.244;2022-10-26T08:58:27;94872.56;;;19.65;55.82
10732;BME280;5417;42.686;23.244;2022-10-26T09:00:55;94869.72;;;19.74;54.15
10732;BME280;5417;42.686;23.244;2022-10-26T09:03:23;94872.31;;;19.99;52.78
10732;BME280;5417;42.686;23.244;2022-10-26T09:06:12;94868.38;;;20.26;52.27
10732;BME280;5417;42.686;23.244;2022-10-26T09:08:52;94872.78;;;20.50;52.77
10732;BME280;5417;42.686;23.244;2022-10-26T09:11:45;94872.97;;;20.71;52.58
10732;BME280;5417;42.686;23.244;2022-10-26T09:14:18;94868.31;;;20.81;51.37
10732;BME280;5417;42.686;23.244;2022-10-26T09:16:58;94865.66;;;20.81;49.74
10732;BME280;5417;42.686;23.244;2022-10-26T09:22:34;94861.56;;;20.70;50.72
10732;BME280;5417;42.686;23.244;2022-10-26T09:25:12;94872.63;;;20.74;51.00
10732;BME280;5417;42.686;23.244;2022-10-26T09:27:44;94864.50;;;20.84;50.22
10732;BME280;5417;42.686;23.244;2022-10-26T09:30:14;94862.25;;;20.95;50.74
10732;BME280;5417;42.686;23.244;2022-10-26T09:32:44;94866.16;;;20.76;50.63
10732;BME280;5417;42.686;23.244;2022-10-26T09:35:14;94859.94;;;20.69;49.91
10732;BME280;5417;42.686;23.244;2022-10-26T09:37:48;94864.53;;;20.75;50.66
10732;BME280;5417;42.686;23.244;2022-10-26T09:40:20;94857.44;;;20.99;50.84
10732;BME280;5417;42.686;23.244;2022-10-26T09:42:54;94860.22;;;21.20;49.29
10732;BME280;5417;42.686;23.244;2022-10-26T09:45:28;94850.47;;;21.21;48.94
10732;BME280;5417;42.686;23.244;2022-10-26T09:47:59;94856.50;;;21.37;49.17
10732;BME280;5417;42.686;23.244;2022-10-26T09:50:32;94849.41;;;21.30;48.84
10732;BME280;5417;42.686;23.244;2022-10-26T09:53:02;94849.41;;;21.30;48.14
10732;BME280;5417;42.686;23.244;2022-10-26T09:55:30;94847.09;;;21.35;48.49
10732;BME280;5417;42.686;23.244;2022-10-26T09:58:00;94846.91;;;21.36;48.21
10732;BME280;5417;42.686;23.244;2022-10-26T10:00:28;94849.22;;;21.31;47.99
10732;BME280;5417;42.686;23.244;2022-10-26T10:02:57;94848.19;;;21.40;47.40
10732;BME280;5417;42.686;23.244;2022-10-26T10:05:27;94839.25;;;21.56;47.87
10732;BME280;5417;42.686;23.244;2022-10-26T10:08:14;94833.41;;;21.61;46.16
10732;BME280;5417;42.686;23.244;2022-10-26T10:10:59;94834.50;;;21.52;46.00
10732;BME280;5417;42.686;23.244;2022-10-26T10:13:29;94832.75;;;21.44;46.89
10732;BME280;5417;42.686;23.244;2022-10-26T10:16:02;94826.63;;;21.44;46.58
10732;BME280;5417;42.686;23.244;2022-10-26T10:18:30;94821.25;;;21.52;47.79
10732;BME280;5417;42.686;23.244;2022-10-26T10:20:58;94831.50;;;21.55;46.51
10732;BME280;5417;42.686;23.244;2022-10-26T10:23:29;94820.63;;;21.50;46.44
10732;BME280;5417;42.686;23.244;2022-10-26T10:25:58;94821.88;;;21.39;46.78
10732;BME280;5417;42.686;23.244;2022-10-26T10:28:27;94822.75;;;21.31;46.77
10732;BME280;5417;42.686;23.244;2022-10-26T10:30:55;94826.53;;;21.37;46.85
10732;BME280;5417;42.686;23.244;2022-10-26T10:33:35;94810.47;;;21.38;46.76
10732;BME280;5417;42.686;23.244;2022-10-26T10:36:06;94826.94;;;21.26;46.86
10732;BME280;5417;42.686;23.244;2022-10-26T10:38:43;94815.94;;;21.37;47.17
10732;BME280;5417;42.686;23.244;2022-10-26T10:41:17;94815.50;;;21.48;46.66
10732;BME280;5417;42.686;23.244;2022-10-26T10:43:47;94808.75;;;21.60;46.30
10732;BME280;5417;42.686;23.244;2022-10-26T10:46:24;94806.47;;;21.87;46.02
10732;BME280;5417;42.686;23.244;2022-10-26T10:49:00;94803.16;;;21.99;46.03
10732;BME280;5417;42.686;23.244;2022-10-26T10:51:30;94803.91;;;21.93;45.32
10732;BME280;5417;42.686;23.244;2022-10-26T10:54:04;94801.34;;;21.85;44.94
10732;BME280;5417;42.686;23.244;2022-10-26T10:56:34;94798.97;;;21.90;45.02
10732;BME280;5417;42.686;23.244;2022-10-26T11:02:23;94792.31;;;21.94;43.13
10732;BME280;5417;42.686;23.244;2022-10-26T11:05:06;94790.47;;;22.10;43.71
10732;BME280;5417;42.686;23.244;2022-10-26T11:07:46;94785.47;;;22.36;43.74
10732;BME280;5417;42.686;23.244;2022-10-26T11:10:18;94781.16;;;22.50;41.52
10732;BME280;5417;42.686;23.244;2022-10-26T11:12:50;94781.72;;;22.45;41.51
10732;BME280;5417;42.686;23.244;2022-10-26T11:15:21;94785.97;;;22.25;40.81
10732;BME280;5417;42.686;23.244;2022-10-26T11:17:54;94779.56;;;22.19;40.11
10732;BME280;5417;42.686;23.244;2022-10-26T11:20:26;94773.28;;;22.06;40.03
10732;BME280;5417;42.686;23.244;2022-10-26T11:23:02;94779.22;;;21.93;40.59
10732;BME280;5417;42.686;23.244;2022-10-26T11:25:38;94775.38;;;21.81;40.54
10732;BME280;5417;42.686;23.244;2022-10-26T11:28:13;94776.94;;;21.90;41.47
10732;BME280;5417;42.686;23.244;2022-10-26T11:30:45;94777.28;;;22.01;41.21
10732;BME280;5417;42.686;23.244;2022-10-26T11:33:19;94768.53;;;22.01;41.01
10732;BME280;5417;42.686;23.244;2022-10-26T11:35:52;94765.06;;;22.00;40.65
10732;BME280;5417;42.686;23.244;2022-10-26T11:38:28;94778.78;;;21.89;40.81
10732;BME280;5417;42.686;23.244;2022-10-26T11:41:00;94775.75;;;21.78;38.96
10732;BME280;5417;42.686;23.244;2022-10-26T11:43:49;94773.66;;;21.88;40.20
10732;BME280;5417;42.686;23.244;2022-10-26T11:46:41;94772.19;;;22.00;39.05
10732;BME280;5417;42.686;23.244;2022-10-26T11:49:13;94773.38;;;22.12;40.04
10732;BME280;5417;42.686;23.244;2022-10-26T11:51:47;94764.66;;;22.18;39.46
10732;BME280;5417;42.686;23.244;2022-10-26T11:54:18;94768.53;;;22.16;39.19
10732;BME280;5417;42.686;23.244;2022-10-26T11:56:52;94764.28;;;22.21;39.50
10732;BME280;5417;42.686;23.244;2022-10-26T12:01:49;94758.63;;;22.24;39.08
10732;BME280;5417;42.686;23.244;2022-10-26T12:04:19;94758.09;;;22.14;39.75
10732;BME280;5417;42.686;23.244;2022-10-26T12:06:49;94759.94;;;21.99;39.80
10732;BME280;5417;42.686;23.244;2022-10-26T12:09:19;94758.78;;;21.87;39.60
10732;BME280;5417;42.686;23.244;2022-10-26T12:11:54;94753.28;;;21.88;39.89
10732;BME280;5417;42.686;23.244;2022-10-26T12:14:26;94749.63;;;21.74;39.40
10732;BME280;5417;42.686;23.244;2022-10-26T12:17:00;94756.38;;;21.77;39.91
10732;BME280;5417;42.686;23.244;2022-10-26T12:19:40;94751.16;;;21.84;40.25
10732;BME280;5417;42.686;23.244;2022-10-26T12:22:12;94759.59;;;21.87;40.01
10732;BME280;5417;42.686;23.244;2022-10-26T12:24:42;94752.34;;;21.81;39.23
10732;BME280;5417;42.686;23.244;2022-10-26T12:30:25;94756.84;;;21.51;39.35
10732;BME280;5417;42.686;23.244;2022-10-26T12:32:53;94760.34;;;21.37;40.15
10732;BME280;5417;42.686;23.244;2022-10-26T12:35:37;94756.38;;;21.33;38.81
10732;BME280;5417;42.686;23.244;2022-10-26T12:41:30;94760.22;;;21.30;38.82
10732;BME280;5417;42.686;23.244;2022-10-26T12:45:05;94752.16;;;21.24;38.47
10732;BME280;5417;42.686;23.244;2022-10-26T12:48:02;94759.56;;;21.28;38.67
10732;BME280;5417;42.686;23.244;2022-10-26T12:50:50;94751.56;;;21.36;37.90
10732;BME280;5417;42.686;23.244;2022-10-26T12:53:19;94754.72;;;21.32;36.89
10732;BME280;5417;42.686;23.244;2022-10-26T12:56:01;94757.38;;;21.32;37.36
10732;BME280;5417;42.686;23.244;2022-10-26T13:04:45;94762.53;;;21.33;36.85
10732;BME280;5417;42.686;23.244;2022-10-26T13:07:21;94759.56;;;21.28;35.76
10732;BME280;5417;42.686;23.244;2022-10-26T13:10:16;94761.94;;;21.23;35.54
10732;BME280;5417;42.686;23.244;2022-10-26T13:12:46;94760.81;;;21.18;35.45
10732;BME280;5417;42.686;23.244;2022-10-26T13:15:20;94762.75;;;21.24;35.93
10732;BME280;5417;42.686;23.244;2022-10-26T13:18:06;94766.00;;;21.34;35.40
10732;BME280;5417;42.686;23.244;2022-10-26T13:20:36;94762.53;;;21.33;34.84
10732;BME280;5417;42.686;23.244;2022-10-26T13:23:14;94762.53;;;21.33;35.18
10732;BME280;5417;42.686;23.244;2022-10-26T13:25:41;94764.06;;;21.42;34.92
10732;BME280;5417;42.686;23.244;2022-10-26T13:28:31;94768.38;;;21.44;34.05
10732;BME280;5417;42.686;23.244;2022-10-26T13:30:58;94767.34;;;21.30;34.43
10732;BME280;5417;42.686;23.244;2022-10-26T13:33:30;94765.75;;;21.21;34.06
10732;BME280;5417;42.686;23.244;2022-10-26T13:35:59;94771.84;;;21.21;34.42
10732;BME280;5417;42.686;23.244;2022-10-26T13:38:31;94767.94;;;21.17;35.13
10732;BME280;5417;42.686;23.244;2022-10-26T13:41:06;94772.16;;;21.26;34.22
10732;BME280;5417;42.686;23.244;2022-10-26T13:43:35;94771.81;;;21.29;34.69